Time;durP1;ratioP1;P1;durP2;ratioP2;P2;SDS_P1;SDS_P2;PMS_P1;PMS_P2;Temp;Humidity;BMP_temperature;BMP_pressure;BME280_temperature;BME280_humidity;BME280_pressure;Samples;Min_cycle;Max_cycle;Signal;HPM_P1;HPM_P2
2022/12/31 00:02:19;;;;;;;;;;;11.60;99.90;;;;;;4966704;28;19933;-81
2022/12/31 00:04:44;;;;;;;;;;;11.60;99.90;;;;;;4982310;28;19918;-81
2022/12/31 00:07:10;;;;;;;;;;;11.60;99.90;;;;;;4983592;28;20389;-81
2022/12/31 00:09:36;;;;;;;;;;;11.60;99.90;;;;;;4985078;28;20012;-81
2022/12/31 00:12:01;;;;;;;;;;;11.60;99.90;;;;;;4969770;28;19953;-81
2022/12/31 00:14:27;;;;;;;;;;;11.60;99.90;;;;;;4952506;28;19922;-81
2022/12/31 00:16:52;;;;;;;;;;;11.60;99.90;;;;;;4962817;28;20439;-81
2022/12/31 00:19:18;;;;;;;;;;;11.60;99.90;;;;;;4981624;28;20016;-80
2022/12/31 00:21:43;;;;;;;;;;;11.60;99.90;;;;;;4969436;28;19929;-80
2022/12/31 00:24:10;;;;;;;;;;;11.60;99.90;;;;;;4986491;28;19964;-80
2022/12/31 00:26:35;;;;;;;;;;;11.60;99.90;;;;;;4989602;28;20004;-80
2022/12/31 00:29:02;;;;;;;;;;;11.50;99.90;;;;;;4973154;28;19924;-80
2022/12/31 00:31:28;;;;;;;;;;;11.60;99.90;;;;;;4971466;28;19922;-80
2022/12/31 00:33:55;;;;;;;;;;;11.60;99.90;;;;;;4956933;28;19918;-80
2022/12/31 00:36:31;;;;;;;;;;;12.00;99.90;;;;;;4968562;28;20290;-80
2022/12/31 00:38:57;;;;;;;;;;;11.60;99.90;;;;;;4973095;28;20312;-80
2022/12/31 00:41:23;;;;;;;;;;;11.60;99.90;;;;;;4988958;28;19965;-80
2022/12/31 00:43:49;;;;;;;;;;;11.60;99.90;;;;;;4973565;28;19965;-80
2022/12/31 00:46:15;;;;;;;;;;;11.60;99.90;;;;;;4967868;28;20409;-80
2022/12/31 00:48:40;;;;;;;;;;;11.80;99.90;;;;;;4985034;28;19933;-80
2022/12/31 00:51:07;;;;;;;;;;;11.50;99.90;;;;;;4972708;28;19937;-80
2022/12/31 00:53:33;;;;;;;;;;;11.50;99.90;;;;;;4970733;28;19922;-80
2022/12/31 00:56:03;;;;;;;;;;;11.50;99.90;;;;;;4972542;28;19968;-80
2022/12/31 00:58:28;;;;;;;;;;;11.50;99.90;;;;;;4976276;28;20004;-80
2022/12/31 01:00:54;;;;;;;;;;;11.50;99.90;;;;;;4988914;28;20004;-80
2022/12/31 01:03:20;;;;;;;;;;;11.50;99.90;;;;;;4973182;28;19968;-81
2022/12/31 01:05:45;;;;;;;;;;;11.50;99.90;;;;;;4967201;28;19936;-80
2022/12/31 01:08:11;;;;;;;;;;;11.50;99.90;;;;;;4989545;28;19929;-80
2022/12/31 01:13:21;;;;;;;;;;;11.50;99.90;;;;;;4989665;28;19922;-80
2022/12/31 01:15:46;;;;;;;;;;;11.50;99.90;;;;;;4972260;28;20021;-80
2022/12/31 01:18:12;;;;;;;;;;;11.50;99.90;;;;;;4972242;28;20051;-80
2022/12/31 01:20:39;;;;;;;;;;;11.50;99.90;;;;;;4972595;28;19917;-80
2022/12/31 01:23:05;;;;;;;;;;;11.50;99.90;;;;;;4965327;28;20409;-80
2022/12/31 01:25:33;;;;;;;;;;;11.50;99.90;;;;;;4988428;28;19928;-80
2022/12/31 01:27:59;;;;;;;;;;;11.90;99.90;;;;;;4986102;28;19921;-80
2022/12/31 01:30:24;;;;;;;;;;;11.50;99.90;;;;;;4986859;28;19918;-80
2022/12/31 01:32:50;;;;;;;;;;;11.50;99.90;;;;;;4989646;28;20500;-80
2022/12/31 01:35:15;;;;;;;;;;;11.50;99.90;;;;;;4988707;28;20300;-80
2022/12/31 01:37:41;;;;;;;;;;;11.50;99.90;;;;;;4971051;28;19972;-80
2022/12/31 01:40:07;;;;;;;;;;;11.50;99.90;;;;;;4971821;28;19925;-80
2022/12/31 01:42:32;;;;;;;;;;;11.50;99.90;;;;;;4972075;28;19922;-80
2022/12/31 01:44:58;;;;;;;;;;;11.50;99.90;;;;;;4970611;28;20109;-80
2022/12/31 01:47:34;;;;;;;;;;;11.60;99.90;;;;;;4970376;28;19929;-80
2022/12/31 01:50:09;;;;;;;;;;;11.50;99.90;;;;;;4989197;28;19979;-80
2022/12/31 01:52:39;;;;;;;;;;;11.50;99.90;;;;;;4971199;28;19924;-80
2022/12/31 01:55:27;;;;;;;;;;;11.50;99.90;;;;;;4989116;28;19922;-80
2022/12/31 01:57:55;;;;;;;;;;;11.50;99.90;;;;;;4988405;28;19925;-80
2022/12/31 02:00:20;;;;;;;;;;;12.10;99.90;;;;;;4969943;28;19996;-81
2022/12/31 02:02:46;;;;;;;;;;;11.70;99.90;;;;;;4971978;28;19969;-80
2022/12/31 02:05:18;;;;;;;;;;;11.50;99.90;;;;;;4971569;28;20007;-80
2022/12/31 02:07:46;;;;;;;;;;;11.50;99.90;;;;;;4969072;28;19926;-81
2022/12/31 02:10:11;;;;;;;;;;;11.50;99.90;;;;;;4992214;28;19939;-80
2022/12/31 02:12:37;;;;;;;;;;;11.50;99.90;;;;;;4973831;28;20400;-80
2022/12/31 02:15:03;;;;;;;;;;;11.50;99.90;;;;;;4993614;28;19923;-80
2022/12/31 02:17:49;;;;;;;;;;;11.50;99.90;;;;;;4975217;28;20038;-81
2022/12/31 02:20:50;;;;;;;;;;;11.50;99.90;;;;;;4993534;28;19917;-80
2022/12/31 02:23:34;;;;;;;;;;;11.50;99.90;;;;;;4951826;29;19929;-81
2022/12/31 02:26:02;;;;;;;;;;;11.40;99.90;;;;;;4949963;29;19918;-80
2022/12/31 02:28:47;;;;;;;;;;;11.40;99.90;;;;;;4919487;29;19922;-81
2022/12/31 02:31:13;;;;;;;;;;;11.40;99.90;;;;;;4935552;29;19922;-80
2022/12/31 02:33:41;;;;;;;;;;;11.40;99.90;;;;;;4948181;29;19981;-80
2022/12/31 02:36:10;;;;;;;;;;;11.40;99.90;;;;;;4935792;29;19929;-80
2022/12/31 02:38:39;;;;;;;;;;;11.40;99.90;;;;;;4937129;29;19918;-80
2022/12/31 02:41:05;;;;;;;;;;;11.40;99.90;;;;;;4951353;29;19997;-80
2022/12/31 02:43:30;;;;;;;;;;;11.90;99.90;;;;;;4951583;29;19961;-80
2022/12/31 02:45:56;;;;;;;;;;;11.30;99.90;;;;;;4934152;29;19926;-80
2022/12/31 02:48:30;;;;;;;;;;;11.70;99.90;;;;;;4934098;29;19966;-80
2022/12/31 02:51:14;;;;;;;;;;;11.30;99.90;;;;;;4935508;29;19981;-80
2022/12/31 02:53:43;;;;;;;;;;;11.30;99.90;;;;;;4951475;29;20040;-80
2022/12/31 02:56:18;;;;;;;;;;;11.20;99.90;;;;;;4933309;28;20282;-80
2022/12/31 03:04:35;;;;;;;;;;;11.20;99.90;;;;;;4990804;28;19924;-80
2022/12/31 03:07:02;;;;;;;;;;;11.20;99.90;;;;;;4992550;28;20027;-80
2022/12/31 03:09:27;;;;;;;;;;;11.10;99.90;;;;;;4974229;28;19926;-80
2022/12/31 03:14:37;;;;;;;;;;;11.10;99.90;;;;;;4990496;28;20249;-80
2022/12/31 03:17:03;;;;;;;;;;;11.00;99.90;;;;;;4971945;28;20324;-80
2022/12/31 03:22:28;;;;;;;;;;;11.00;99.90;;;;;;4969847;28;19976;-79
2022/12/31 03:27:46;;;;;;;;;;;11.00;99.90;;;;;;4985966;28;20020;-80
2022/12/31 03:30:12;;;;;;;;;;;11.00;99.90;;;;;;4971481;28;19918;-80
2022/12/31 03:32:38;;;;;;;;;;;11.00;99.90;;;;;;4980967;28;19922;-80
2022/12/31 03:35:04;;;;;;;;;;;11.00;99.90;;;;;;4989033;28;19924;-80
2022/12/31 03:37:29;;;;;;;;;;;10.90;99.90;;;;;;4973324;28;20381;-80
2022/12/31 03:39:55;;;;;;;;;;;10.90;99.90;;;;;;4973953;28;19960;-80
2022/12/31 03:42:21;;;;;;;;;;;11.00;99.90;;;;;;4971312;28;19918;-80
2022/12/31 03:44:47;;;;;;;;;;;10.90;99.90;;;;;;4990692;28;20191;-80
2022/12/31 03:47:12;;;;;;;;;;;10.90;99.90;;;;;;4970820;28;20344;-81
2022/12/31 03:49:38;;;;;;;;;;;10.90;99.90;;;;;;4969430;28;19921;-81
2022/12/31 03:52:05;;;;;;;;;;;10.90;99.90;;;;;;4970681;28;19918;-81
2022/12/31 03:54:31;;;;;;;;;;;10.80;99.90;;;;;;4969220;28;19957;-80
2022/12/31 03:56:56;;;;;;;;;;;10.90;99.90;;;;;;4990417;28;19960;-80
2022/12/31 03:59:22;;;;;;;;;;;10.80;99.90;;;;;;4970638;28;19922;-79
2022/12/31 04:01:47;;;;;;;;;;;10.80;99.90;;;;;;4988551;28;20016;-79
2022/12/31 04:04:13;;;;;;;;;;;10.90;99.90;;;;;;4990672;28;20357;-79
2022/12/31 04:06:38;;;;;;;;;;;10.80;99.90;;;;;;4972119;28;19921;-80
2022/12/31 04:09:04;;;;;;;;;;;11.40;99.90;;;;;;4990395;28;19968;-80
2022/12/31 04:11:29;;;;;;;;;;;10.80;99.90;;;;;;4989011;28;20059;-80
2022/12/31 04:13:55;;;;;;;;;;;10.80;99.90;;;;;;4974032;28;19981;-80
2022/12/31 04:16:20;;;;;;;;;;;10.80;99.90;;;;;;4968321;28;19918;-79
2022/12/31 04:18:46;;;;;;;;;;;10.80;99.90;;;;;;4988380;28;19918;-79
2022/12/31 04:21:12;;;;;;;;;;;10.80;99.90;;;;;;4990424;28;19921;-79
2022/12/31 04:23:37;;;;;;;;;;;10.70;99.90;;;;;;4969665;28;19948;-80
2022/12/31 04:26:03;;;;;;;;;;;10.80;99.90;;;;;;4969058;28;19918;-79
2022/12/31 04:28:28;;;;;;;;;;;10.70;99.90;;;;;;4973946;28;19926;-79
2022/12/31 04:30:54;;;;;;;;;;;10.70;99.90;;;;;;4954383;28;19922;-80
2022/12/31 04:33:19;;;;;;;;;;;10.70;99.90;;;;;;4968636;28;19924;-80
2022/12/31 04:35:45;;;;;;;;;;;10.70;99.90;;;;;;4990620;28;20045;-79
2022/12/31 04:38:11;;;;;;;;;;;10.70;99.90;;;;;;4951620;28;19925;-80
2022/12/31 04:41:15;;;;;;;;;;;10.80;99.90;;;;;;4973499;28;20040;-80
2022/12/31 04:43:21;;;;;;;;;;;10.70;99.90;;;;;;4986267;28;19933;-80
2022/12/31 04:45:47;;;;;;;;;;;10.70;99.90;;;;;;4973321;28;19926;-80
2022/12/31 04:48:13;;;;;;;;;;;10.70;99.90;;;;;;4990843;28;20300;-80
2022/12/31 04:50:38;;;;;;;;;;;10.70;99.90;;;;;;4972425;28;20288;-80
2022/12/31 04:53:04;;;;;;;;;;;10.70;99.90;;;;;;4969877;28;19984;-80
2022/12/31 04:55:29;;;;;;;;;;;10.70;99.90;;;;;;4973350;28;19922;-80
2022/12/31 04:57:55;;;;;;;;;;;10.80;99.90;;;;;;4948346;28;20005;-79
2022/12/31 05:00:20;;;;;;;;;;;10.80;99.90;;;;;;4989439;28;19928;-79
2022/12/31 05:02:46;;;;;;;;;;;10.70;99.90;;;;;;4970780;28;19921;-79
2022/12/31 05:05:11;;;;;;;;;;;10.70;99.90;;;;;;4989254;28;19921;-79
2022/12/31 05:07:37;;;;;;;;;;;10.80;99.90;;;;;;4979350;28;19933;-79
2022/12/31 05:10:03;;;;;;;;;;;10.80;99.90;;;;;;4967803;28;19917;-80
2022/12/31 05:12:29;;;;;;;;;;;10.70;99.90;;;;;;4968058;28;19917;-79
2022/12/31 05:14:54;;;;;;;;;;;10.70;99.90;;;;;;4969796;28;19918;-79
2022/12/31 05:17:20;;;;;;;;;;;10.70;99.90;;;;;;4972334;28;20328;-79
2022/12/31 05:19:45;;;;;;;;;;;10.80;99.90;;;;;;4972170;28;19917;-79
2022/12/31 05:22:29;;;;;;;;;;;10.70;99.90;;;;;;4989154;28;19945;-82
2022/12/31 05:24:58;;;;;;;;;;;10.80;99.90;;;;;;4972740;28;20769;-81
2022/12/31 05:27:24;;;;;;;;;;;10.70;99.90;;;;;;4962836;28;20028;-82
2022/12/31 05:29:50;;;;;;;;;;;10.70;99.90;;;;;;4989719;28;19918;-82
2022/12/31 05:32:15;;;;;;;;;;;10.70;99.90;;;;;;4988176;28;19922;-79
2022/12/31 05:34:41;;;;;;;;;;;10.70;99.90;;;;;;4972281;28;20003;-80
2022/12/31 05:37:06;;;;;;;;;;;10.70;99.90;;;;;;4988053;28;19984;-79
2022/12/31 05:39:32;;;;;;;;;;;10.70;99.90;;;;;;4968435;28;19932;-79
2022/12/31 05:41:58;;;;;;;;;;;10.80;99.90;;;;;;4989509;28;19981;-80
2022/12/31 05:44:23;;;;;;;;;;;10.70;99.90;;;;;;4970651;28;20357;-79
2022/12/31 05:46:49;;;;;;;;;;;10.70;99.90;;;;;;4970685;28;20269;-79
2022/12/31 05:49:14;;;;;;;;;;;10.70;99.90;;;;;;4968756;28;20728;-78
2022/12/31 05:51:40;;;;;;;;;;;10.80;99.90;;;;;;4971453;28;20372;-79
2022/12/31 05:54:06;;;;;;;;;;;10.80;99.90;;;;;;4972209;28;19996;-79
2022/12/31 05:56:32;;;;;;;;;;;10.80;99.90;;;;;;4984511;28;20373;-80
2022/12/31 05:58:57;;;;;;;;;;;10.80;99.90;;;;;;4954325;28;20012;-80
2022/12/31 06:01:23;;;;;;;;;;;10.80;99.90;;;;;;4971979;28;19918;-79
2022/12/31 06:03:49;;;;;;;;;;;10.80;99.90;;;;;;4971950;28;19918;-79
2022/12/31 06:06:14;;;;;;;;;;;10.90;99.90;;;;;;4985657;28;19973;-79
2022/12/31 06:08:40;;;;;;;;;;;11.00;99.90;;;;;;4970589;28;20392;-79
2022/12/31 06:11:05;;;;;;;;;;;10.90;99.90;;;;;;4971682;28;20385;-80
2022/12/31 06:13:31;;;;;;;;;;;10.80;99.90;;;;;;4963152;28;19922;-79
2022/12/31 06:15:56;;;;;;;;;;;10.90;99.90;;;;;;4986787;28;19976;-80
2022/12/31 06:18:22;;;;;;;;;;;11.10;99.90;;;;;;4968402;28;19926;-79
2022/12/31 06:20:47;;;;;;;;;;;10.90;99.90;;;;;;4980731;28;20563;-79
2022/12/31 06:23:13;;;;;;;;;;;10.80;99.90;;;;;;4968836;28;20004;-80
2022/12/31 06:25:38;;;;;;;;;;;10.80;99.90;;;;;;4971135;28;19925;-80
2022/12/31 06:28:04;;;;;;;;;;;10.80;99.90;;;;;;4986004;28;19953;-80
2022/12/31 06:30:30;;;;;;;;;;;11.10;99.90;;;;;;4966223;28;19922;-79
2022/12/31 06:32:56;;;;;;;;;;;10.80;99.90;;;;;;4989554;28;19921;-79
2022/12/31 06:35:21;;;;;;;;;;;10.80;99.90;;;;;;4967932;28;20428;-79
2022/12/31 06:37:47;;;;;;;;;;;10.80;99.90;;;;;;4972136;28;19933;-79
2022/12/31 06:40:13;;;;;;;;;;;11.00;99.90;;;;;;4970882;28;20372;-79
2022/12/31 06:42:38;;;;;;;;;;;10.80;99.90;;;;;;4970762;28;19925;-79
2022/12/31 06:45:04;;;;;;;;;;;10.80;99.90;;;;;;4971983;28;19953;-79
2022/12/31 06:47:30;;;;;;;;;;;10.80;99.90;;;;;;4971694;28;20334;-80
2022/12/31 06:49:55;;;;;;;;;;;10.80;99.90;;;;;;4970494;28;19929;-80
2022/12/31 06:52:21;;;;;;;;;;;10.80;99.90;;;;;;4988572;28;19918;-80
2022/12/31 06:54:47;;;;;;;;;;;10.70;99.90;;;;;;4984195;28;19921;-80
2022/12/31 06:57:12;;;;;;;;;;;10.70;99.90;;;;;;4988964;28;19925;-80
2022/12/31 06:59:38;;;;;;;;;;;10.70;99.90;;;;;;4974139;28;20300;-80
2022/12/31 07:02:13;;;;;;;;;;;10.70;99.90;;;;;;4969080;28;19918;-80
2022/12/31 07:04:50;;;;;;;;;;;10.60;99.90;;;;;;4989806;28;19926;-80
2022/12/31 07:07:22;;;;;;;;;;;10.60;99.90;;;;;;4967789;28;19928;-80
2022/12/31 07:10:04;;;;;;;;;;;10.70;99.90;;;;;;4989738;28;19926;-80
2022/12/31 07:12:42;;;;;;;;;;;10.60;99.90;;;;;;4988046;28;19952;-80
2022/12/31 07:15:10;;;;;;;;;;;10.60;99.90;;;;;;4990368;28;19948;-80
2022/12/31 07:18:06;;;;;;;;;;;10.60;99.90;;;;;;4985915;28;19921;-80
2022/12/31 07:20:32;;;;;;;;;;;10.60;99.90;;;;;;4911343;29;20074;-80
2022/12/31 07:22:57;;;;;;;;;;;10.60;99.90;;;;;;4909586;29;19927;-80
2022/12/31 07:25:23;;;;;;;;;;;10.50;99.90;;;;;;4895455;29;19934;-79
2022/12/31 07:27:48;;;;;;;;;;;10.60;99.90;;;;;;4914453;29;19965;-79
2022/12/31 07:30:16;;;;;;;;;;;10.50;99.90;;;;;;4897006;29;19923;-80
2022/12/31 07:32:45;;;;;;;;;;;10.50;99.90;;;;;;4893118;29;19922;-79
2022/12/31 07:35:16;;;;;;;;;;;10.50;99.90;;;;;;4911208;29;20378;-80
2022/12/31 07:37:50;;;;;;;;;;;10.50;99.90;;;;;;4916989;29;19918;-80
2022/12/31 07:40:26;;;;;;;;;;;10.50;99.90;;;;;;4911683;29;19919;-79
2022/12/31 07:42:57;;;;;;;;;;;10.50;99.90;;;;;;4906086;29;20007;-80
2022/12/31 07:45:27;;;;;;;;;;;10.50;99.90;;;;;;4896203;29;20429;-80
2022/12/31 07:47:52;;;;;;;;;;;10.50;99.90;;;;;;4897549;29;19923;-80
2022/12/31 07:50:18;;;;;;;;;;;10.50;99.90;;;;;;4897715;29;19923;-80
2022/12/31 07:52:44;;;;;;;;;;;10.50;99.90;;;;;;4911276;29;19971;-80
2022/12/31 07:55:10;;;;;;;;;;;10.50;99.90;;;;;;4895082;29;19923;-82
2022/12/31 07:57:56;;;;;;;;;;;10.50;99.90;;;;;;4960016;28;19936;-80
2022/12/31 08:00:22;;;;;;;;;;;10.50;99.90;;;;;;4987068;28;19925;-81
2022/12/31 08:02:53;;;;;;;;;;;10.50;99.90;;;;;;4956242;28;19925;-81
2022/12/31 08:05:28;;;;;;;;;;;10.50;99.90;;;;;;4990989;28;20005;-81
2022/12/31 08:07:57;;;;;;;;;;;10.60;99.90;;;;;;4967640;28;19960;-81
2022/12/31 08:10:22;;;;;;;;;;;10.60;99.90;;;;;;4988324;28;19940;-81
2022/12/31 08:12:49;;;;;;;;;;;10.60;99.90;;;;;;4966525;28;19917;-81
2022/12/31 08:15:16;;;;;;;;;;;10.60;99.90;;;;;;4973195;28;19918;-81
2022/12/31 08:17:41;;;;;;;;;;;10.60;99.90;;;;;;4992166;28;20013;-80
2022/12/31 08:20:11;;;;;;;;;;;10.60;99.90;;;;;;4973136;28;20000;-81
2022/12/31 08:22:39;;;;;;;;;;;11.40;99.90;;;;;;4973853;28;19976;-81
2022/12/31 08:25:17;;;;;;;;;;;10.70;99.90;;;;;;4991505;28;19917;-81
2022/12/31 08:27:51;;;;;;;;;;;10.70;99.90;;;;;;4987658;28;19945;-81
2022/12/31 08:30:19;;;;;;;;;;;10.70;99.90;;;;;;4990301;28;19926;-81
2022/12/31 08:32:57;;;;;;;;;;;10.70;99.90;;;;;;4991014;28;19922;-81
2022/12/31 08:35:35;;;;;;;;;;;10.70;99.90;;;;;;4970365;28;19921;-81
2022/12/31 08:38:00;;;;;;;;;;;10.80;99.90;;;;;;4988645;28;20273;-81
2022/12/31 08:40:35;;;;;;;;;;;10.80;99.90;;;;;;4987732;28;19924;-81
2022/12/31 08:43:13;;;;;;;;;;;10.80;99.90;;;;;;4989951;28;20403;-80
2022/12/31 08:45:46;;;;;;;;;;;11.60;99.90;;;;;;4969866;28;19928;-81
2022/12/31 08:48:11;;;;;;;;;;;10.90;99.90;;;;;;4971771;28;19929;-81
2022/12/31 08:50:37;;;;;;;;;;;10.90;99.90;;;;;;4989534;28;19926;-80
2022/12/31 08:53:03;;;;;;;;;;;11.00;99.90;;;;;;4973177;28;20280;-83
2022/12/31 08:55:28;;;;;;;;;;;11.00;99.90;;;;;;4993815;28;19917;-83
2022/12/31 08:58:05;;;;;;;;;;;11.10;99.90;;;;;;4990467;28;19925;-82
2022/12/31 09:00:32;;;;;;;;;;;11.10;99.90;;;;;;4971792;28;19924;-79
2022/12/31 09:03:16;;;;;;;;;;;11.10;99.90;;;;;;4988406;28;19961;-80
2022/12/31 09:05:51;;;;;;;;;;;11.20;99.90;;;;;;4972010;28;19929;-79
2022/12/31 09:08:20;;;;;;;;;;;11.20;99.90;;;;;;4983778;28;19969;-79
2022/12/31 09:10:52;;;;;;;;;;;11.30;99.90;;;;;;4986440;28;19924;-80
2022/12/31 09:13:18;;;;;;;;;;;11.30;99.90;;;;;;4989965;28;19922;-80
2022/12/31 09:15:59;;;;;;;;;;;11.40;99.90;;;;;;4972860;28;19984;-80
2022/12/31 09:18:24;;;;;;;;;;;11.40;99.90;;;;;;4970880;28;19956;-81
2022/12/31 09:20:50;;;;;;;;;;;11.40;99.90;;;;;;4989845;28;20349;-80
2022/12/31 09:23:16;;;;;;;;;;;11.50;99.90;;;;;;4973224;28;20396;-81
2022/12/31 09:25:54;;;;;;;;;;;11.60;99.90;;;;;;4973236;28;19928;-80
2022/12/31 09:28:23;;;;;;;;;;;11.60;99.90;;;;;;4970957;28;19922;-80
2022/12/31 09:30:48;;;;;;;;;;;11.70;99.90;;;;;;4989986;28;20398;-80
2022/12/31 09:33:24;;;;;;;;;;;11.80;99.90;;;;;;4973468;28;20004;-80
2022/12/31 09:35:53;;;;;;;;;;;12.00;99.90;;;;;;4988257;28;19965;-80
2022/12/31 09:38:19;;;;;;;;;;;11.80;99.90;;;;;;4970106;28;19925;-80
2022/12/31 09:40:54;;;;;;;;;;;11.90;99.90;;;;;;4971831;28;20371;-80
2022/12/31 09:43:38;;;;;;;;;;;11.90;99.90;;;;;;4971208;28;19918;-80
2022/12/31 09:46:22;;;;;;;;;;;12.00;99.90;;;;;;4990362;28;19921;-82
2022/12/31 09:48:55;;;;;;;;;;;12.00;99.90;;;;;;4989826;28;19930;-80
2022/12/31 09:51:27;;;;;;;;;;;12.00;99.90;;;;;;4987277;28;19976;-80
2022/12/31 09:54:16;;;;;;;;;;;12.10;99.90;;;;;;4983748;28;19926;-81
2022/12/31 09:56:45;;;;;;;;;;;12.10;99.90;;;;;;4971074;28;19924;-81
2022/12/31 09:59:20;;;;;;;;;;;12.10;99.90;;;;;;4951365;28;19924;-80
2022/12/31 10:01:51;;;;;;;;;;;12.20;99.90;;;;;;4972048;28;20427;-80
2022/12/31 10:04:23;;;;;;;;;;;12.20;99.90;;;;;;4955487;28;19976;-80
2022/12/31 10:06:49;;;;;;;;;;;12.30;99.90;;;;;;4988618;28;19924;-79
2022/12/31 10:09:14;;;;;;;;;;;12.40;99.90;;;;;;4970453;28;19933;-80
2022/12/31 10:11:42;;;;;;;;;;;12.40;99.90;;;;;;4988926;28;19972;-80
2022/12/31 10:14:14;;;;;;;;;;;12.50;99.90;;;;;;4967542;28;19922;-79
2022/12/31 10:17:03;;;;;;;;;;;12.50;99.90;;;;;;4969562;28;20364;-80
2022/12/31 10:19:47;;;;;;;;;;;12.60;99.90;;;;;;4987476;28;19936;-80
2022/12/31 10:22:12;;;;;;;;;;;12.60;99.90;;;;;;4985008;28;19937;-80
2022/12/31 10:24:38;;;;;;;;;;;12.60;99.90;;;;;;4988102;28;19945;-80
2022/12/31 10:27:25;;;;;;;;;;;12.60;99.90;;;;;;4985327;28;19972;-80
2022/12/31 10:29:57;;;;;;;;;;;12.70;99.90;;;;;;4965750;28;20364;-80
2022/12/31 10:32:35;;;;;;;;;;;12.80;99.90;;;;;;4974609;28;19926;-80
2022/12/31 10:35:12;;;;;;;;;;;12.80;99.90;;;;;;4992662;28;20368;-80
2022/12/31 10:37:45;;;;;;;;;;;12.80;99.90;;;;;;4958483;28;19933;-80
2022/12/31 10:40:26;;;;;;;;;;;12.90;99.90;;;;;;4973176;28;20008;-80
2022/12/31 10:42:58;;;;;;;;;;;13.00;99.90;;;;;;4957390;28;19917;-81
2022/12/31 10:45:42;;;;;;;;;;;13.00;99.90;;;;;;4972311;28;19921;-80
2022/12/31 10:48:26;;;;;;;;;;;13.00;99.90;;;;;;4965443;28;19926;-80
2022/12/31 10:51:07;;;;;;;;;;;13.00;99.90;;;;;;4990573;28;19924;-80
2022/12/31 10:53:44;;;;;;;;;;;13.10;99.90;;;;;;4975040;28;19922;-80
2022/12/31 10:56:28;;;;;;;;;;;13.10;99.90;;;;;;4973880;28;19921;-81
2022/12/31 10:59:00;;;;;;;;;;;13.20;99.90;;;;;;4990305;28;19924;-81
2022/12/31 11:01:46;;;;;;;;;;;13.20;99.90;;;;;;4989293;28;19918;-80
2022/12/31 11:04:19;;;;;;;;;;;13.20;99.90;;;;;;4969621;28;20004;-80
2022/12/31 11:07:03;;;;;;;;;;;13.30;99.90;;;;;;4990865;28;19944;-80
2022/12/31 11:09:31;;;;;;;;;;;13.30;99.90;;;;;;4987454;28;19969;-80
2022/12/31 11:12:16;;;;;;;;;;;13.30;99.90;;;;;;4972918;28;19929;-81
2022/12/31 11:14:48;;;;;;;;;;;13.40;99.90;;;;;;4974948;28;19921;-80
2022/12/31 11:17:33;;;;;;;;;;;13.40;99.90;;;;;;4972909;28;19917;-80
2022/12/31 11:20:04;;;;;;;;;;;13.40;99.90;;;;;;4986244;28;19926;-80
2022/12/31 11:22:48;;;;;;;;;;;13.50;99.90;;;;;;4991660;28;19918;-80
2022/12/31 11:25:33;;;;;;;;;;;13.50;99.90;;;;;;4990904;28;19948;-80
2022/12/31 11:28:18;;;;;;;;;;;13.50;99.90;;;;;;4962196;28;19921;-79
2022/12/31 11:31:02;;;;;;;;;;;13.60;99.90;;;;;;4972820;28;20320;-80
2022/12/31 11:33:28;;;;;;;;;;;13.50;99.90;;;;;;4989000;28;20161;-80
2022/12/31 11:36:12;;;;;;;;;;;13.50;99.90;;;;;;4990696;28;20384;-80
2022/12/31 11:38:49;;;;;;;;;;;13.50;99.90;;;;;;4955867;28;20296;-80
2022/12/31 11:41:22;;;;;;;;;;;13.60;99.90;;;;;;4988453;28;20047;-80
2022/12/31 11:44:02;;;;;;;;;;;13.60;99.90;;;;;;4987974;28;19930;-80
2022/12/31 11:46:42;;;;;;;;;;;13.60;99.90;;;;;;4970866;28;19932;-81
2022/12/31 11:49:26;;;;;;;;;;;13.60;99.90;;;;;;4970894;28;19930;-82
2022/12/31 11:52:11;;;;;;;;;;;13.60;99.90;;;;;;4965180;28;19954;-81
2022/12/31 11:54:57;;;;;;;;;;;13.60;99.90;;;;;;4989279;28;19998;-80
2022/12/31 11:57:28;;;;;;;;;;;13.60;99.90;;;;;;4970506;28;20379;-80
2022/12/31 12:00:15;;;;;;;;;;;13.60;99.90;;;;;;4972114;28;19937;-81
2022/12/31 12:02:42;;;;;;;;;;;13.50;99.90;;;;;;4988363;28;19917;-80
2022/12/31 12:05:09;;;;;;;;;;;13.50;99.90;;;;;;4954891;28;20291;-81
2022/12/31 12:07:34;;;;;;;;;;;13.50;99.90;;;;;;4989612;28;19933;-80
2022/12/31 12:10:02;;;;;;;;;;;13.40;99.90;;;;;;4971747;28;19924;-81
2022/12/31 12:12:40;;;;;;;;;;;13.40;99.90;;;;;;4986471;28;20016;-80
2022/12/31 12:15:07;;;;;;;;;;;13.40;99.90;;;;;;4969467;28;19921;-81
2022/12/31 12:17:33;;;;;;;;;;;13.30;99.90;;;;;;4972689;28;19921;-82
2022/12/31 12:20:00;;;;;;;;;;;13.30;99.90;;;;;;4984196;28;19952;-82
2022/12/31 12:22:26;;;;;;;;;;;13.40;99.90;;;;;;4987111;28;20392;-81
2022/12/31 12:24:55;;;;;;;;;;;13.30;99.90;;;;;;4972733;28;20360;-81
2022/12/31 12:27:28;;;;;;;;;;;13.30;99.90;;;;;;4988850;28;19980;-82
2022/12/31 12:29:53;;;;;;;;;;;13.30;99.90;;;;;;4989407;28;19969;-82
2022/12/31 12:32:20;;;;;;;;;;;13.40;99.90;;;;;;4971438;28;20631;-81
2022/12/31 12:34:46;;;;;;;;;;;13.50;99.90;;;;;;4971364;28;19918;-81
2022/12/31 12:37:33;;;;;;;;;;;13.30;99.90;;;;;;4989796;28;19940;-81
2022/12/31 12:40:00;;;;;;;;;;;13.40;99.90;;;;;;4971290;28;19925;-81
2022/12/31 12:42:26;;;;;;;;;;;13.40;99.90;;;;;;4972072;28;19918;-81
2022/12/31 12:45:14;;;;;;;;;;;13.30;99.90;;;;;;4989983;28;19924;-81
2022/12/31 12:47:40;;;;;;;;;;;13.40;99.90;;;;;;4969098;28;20011;-81
2022/12/31 12:50:12;;;;;;;;;;;13.40;99.90;;;;;;4971640;28;19918;-81
2022/12/31 12:52:51;;;;;;;;;;;13.40;99.90;;;;;;4967798;28;19925;-80
2022/12/31 12:55:26;;;;;;;;;;;13.40;99.90;;;;;;4973119;28;20000;-81
2022/12/31 12:58:05;;;;;;;;;;;13.40;99.90;;;;;;4988762;28;19917;-81
2022/12/31 13:00:45;;;;;;;;;;;13.40;99.90;;;;;;4990119;28;19918;-81
2022/12/31 13:03:14;;;;;;;;;;;13.50;99.90;;;;;;4973111;28;19961;-81
2022/12/31 13:06:00;;;;;;;;;;;13.50;99.90;;;;;;4989232;28;19925;-81
2022/12/31 13:08:25;;;;;;;;;;;13.50;99.90;;;;;;4971538;28;19928;-81
2022/12/31 13:10:58;;;;;;;;;;;13.50;99.90;;;;;;4987904;28;20012;-81
2022/12/31 13:13:43;;;;;;;;;;;13.50;99.90;;;;;;4954325;28;20005;-81
2022/12/31 13:16:18;;;;;;;;;;;13.50;99.90;;;;;;4973034;28;19992;-81
2022/12/31 13:18:52;;;;;;;;;;;13.50;99.90;;;;;;4968072;28;19932;-81
2022/12/31 13:21:28;;;;;;;;;;;13.50;99.90;;;;;;4985132;28;19921;-81
2022/12/31 13:24:12;;;;;;;;;;;13.40;99.90;;;;;;4989440;28;19928;-81
2022/12/31 13:26:49;;;;;;;;;;;13.50;99.90;;;;;;4968494;28;19980;-81
2022/12/31 13:29:18;;;;;;;;;;;13.40;99.90;;;;;;4984840;28;20304;-81
2022/12/31 13:31:44;;;;;;;;;;;13.40;99.90;;;;;;4955840;28;19926;-81
2022/12/31 13:34:13;;;;;;;;;;;13.30;99.90;;;;;;4968341;28;19929;-81
2022/12/31 13:36:39;;;;;;;;;;;13.30;99.90;;;;;;4971860;28;19929;-82
2022/12/31 13:39:11;;;;;;;;;;;13.40;99.90;;;;;;4988385;28;19921;-81
2022/12/31 13:41:42;;;;;;;;;;;13.20;99.90;;;;;;4972538;28;19918;-80
2022/12/31 13:44:40;;;;;;;;;;;13.20;99.90;;;;;;4966425;28;19928;-81
2022/12/31 13:47:15;;;;;;;;;;;13.10;99.90;;;;;;4938616;28;19921;-81
2022/12/31 13:49:58;;;;;;;;;;;13.20;99.90;;;;;;4983611;28;19922;-81
2022/12/31 13:52:29;;;;;;;;;;;13.00;99.90;;;;;;4949880;28;19925;-81
2022/12/31 13:55:13;;;;;;;;;;;13.00;99.90;;;;;;4971551;28;19925;-82
2022/12/31 13:57:44;;;;;;;;;;;12.90;99.90;;;;;;4985309;28;19925;-82
2022/12/31 14:00:30;;;;;;;;;;;12.90;99.90;;;;;;4965037;28;20151;-81
2022/12/31 14:02:55;;;;;;;;;;;12.80;99.90;;;;;;4973464;28;19937;-82
2022/12/31 14:05:44;;;;;;;;;;;12.80;99.90;;;;;;4989509;28;19922;-81
2022/12/31 14:08:10;;;;;;;;;;;12.80;99.90;;;;;;4960870;28;20014;-82
2022/12/31 14:10:35;;;;;;;;;;;12.80;99.90;;;;;;4968681;28;20043;-81
2022/12/31 14:13:04;;;;;;;;;;;12.70;99.90;;;;;;4964674;28;19917;-81
2022/12/31 14:15:32;;;;;;;;;;;12.70;99.90;;;;;;4961281;28;19925;-81
2022/12/31 14:17:58;;;;;;;;;;;12.70;99.90;;;;;;4968955;28;19928;-81
2022/12/31 14:20:26;;;;;;;;;;;12.70;99.90;;;;;;4967933;28;19918;-81
2022/12/31 14:22:55;;;;;;;;;;;12.70;99.90;;;;;;4988290;28;20395;-81
2022/12/31 14:25:29;;;;;;;;;;;12.70;99.90;;;;;;4969386;28;19917;-82
2022/12/31 14:27:56;;;;;;;;;;;12.70;99.90;;;;;;4988224;28;19934;-81
2022/12/31 14:30:24;;;;;;;;;;;12.70;99.90;;;;;;4954454;28;19918;-81
2022/12/31 14:33:08;;;;;;;;;;;12.70;99.90;;;;;;4970435;28;19929;-81
2022/12/31 14:35:46;;;;;;;;;;;12.70;99.90;;;;;;4988336;28;19922;-81
2022/12/31 14:38:21;;;;;;;;;;;12.80;99.90;;;;;;4970946;28;19929;-81
2022/12/31 14:40:59;;;;;;;;;;;12.80;99.90;;;;;;4954076;28;20333;-81
2022/12/31 14:43:25;;;;;;;;;;;12.80;99.90;;;;;;4969883;28;19917;-81
2022/12/31 14:46:11;;;;;;;;;;;12.80;99.90;;;;;;4988648;28;20364;-82
2022/12/31 14:48:43;;;;;;;;;;;12.80;99.90;;;;;;4987846;28;19925;-81
2022/12/31 14:51:09;;;;;;;;;;;12.70;99.90;;;;;;4984832;28;19921;-81
2022/12/31 14:53:35;;;;;;;;;;;12.90;99.90;;;;;;4969001;28;19917;-82